Time;durP1;ratioP1;P1;durP2;ratioP2;P2;SDS_P1;SDS_P2;PMS_P1;PMS_P2;Temp;Humidity;BMP_temperature;BMP_pressure;BME280_temperature;BME280_humidity;BME280_pressure;Samples;Min_cycle;Max_cycle;Signal;HPM_P1;HPM_P2
2022/06/05 00:02:25;;;;;;;6.70;4.27;;;19.00;99.90;;;19.78;100.00;98213.75;4998317;28;20551;-76
2022/06/05 00:05:03;;;;;;;5.40;4.00;;;18.90;99.90;;;19.77;100.00;98209.50;5000310;28;20455;-76
2022/06/05 00:07:43;;;;;;;5.30;4.30;;;19.00;99.90;;;19.78;100.00;98211.09;5000685;28;20553;-76
2022/06/05 00:10:21;;;;;;;6.30;4.40;;;18.90;99.90;;;19.77;100.00;98194.38;4998896;28;20452;-76
2022/06/05 00:13:01;;;;;;;4.80;3.80;;;18.90;99.90;;;19.72;100.00;98196.13;4999667;28;20548;-76
2022/06/05 00:15:32;;;;;;;4.67;3.83;;;18.90;99.90;;;19.69;100.00;98188.66;4997552;28;21000;-76
2022/06/05 00:18:02;;;;;;;7.83;4.40;;;18.90;99.90;;;19.69;100.00;98186.00;4999727;28;20688;-76
2022/06/05 00:20:32;;;;;;;6.40;4.17;;;18.80;99.90;;;19.70;100.00;98177.81;4998923;28;20474;-76
2022/06/05 00:23:01;;;;;;;4.60;3.43;;;18.80;99.90;;;19.73;100.00;98168.56;4997388;28;20464;-75
2022/06/05 00:25:48;;;;;;;6.00;4.07;;;18.80;99.90;;;19.72;100.00;98162.44;4996815;28;20969;-76
2022/06/05 00:28:35;;;;;;;4.40;3.90;;;18.80;99.90;;;19.71;100.00;98154.72;4997304;28;21051;-76
2022/06/05 00:31:20;;;;;;;4.97;3.73;;;18.80;99.90;;;19.68;100.00;98156.00;4995895;28;20479;-76
2022/06/05 00:33:50;;;;;;;8.93;4.20;;;18.80;99.90;;;19.68;100.00;98157.88;4998825;28;21049;-76
2022/06/05 00:36:35;;;;;;;7.00;4.07;;;18.80;99.90;;;19.67;100.00;98158.91;5001487;28;20469;-76
2022/06/05 00:39:16;;;;;;;4.63;4.00;;;18.80;99.90;;;19.65;100.00;98155.69;4997980;28;20499;-76
2022/06/05 00:42:00;;;;;;;6.33;4.30;;;18.80;99.90;;;19.63;100.00;98147.16;4998237;28;21039;-76
2022/06/05 00:44:38;;;;;;;4.83;4.33;;;18.80;99.90;;;19.60;100.00;98145.81;4996716;28;20511;-76
2022/06/05 00:47:13;;;;;;;5.13;4.60;;;18.80;99.90;;;19.57;100.00;98141.00;4996557;28;20524;-76
2022/06/05 00:49:59;;;;;;;4.67;4.00;;;18.80;99.90;;;19.55;100.00;98138.56;5002580;28;20450;-76
2022/06/05 00:52:32;;;;;;;8.53;3.80;;;18.80;99.90;;;19.57;100.00;98141.00;4998152;28;20468;-76
2022/06/05 00:55:03;;;;;;;5.50;4.07;;;18.70;99.90;;;19.55;100.00;98140.41;4999278;28;21146;-76
2022/06/05 00:57:36;;;;;;;4.43;3.70;;;18.70;99.90;;;19.52;100.00;98147.00;4997151;28;20477;-76
2022/06/05 01:00:13;;;;;;;5.00;4.50;;;18.70;99.90;;;19.53;100.00;98132.72;4996800;28;20459;-76
2022/06/05 01:02:51;;;;;;;5.80;3.73;;;18.60;99.90;;;19.50;100.00;98129.75;4998245;28;20465;-76
2022/06/05 01:05:25;;;;;;;5.00;4.13;;;18.60;99.90;;;19.48;100.00;98121.19;4996590;28;20498;-76
2022/06/05 01:07:56;;;;;;;5.03;3.90;;;18.60;99.90;;;19.44;100.00;98110.28;4997285;28;20467;-77
2022/06/05 01:10:49;;;;;;;4.57;4.03;;;18.50;99.90;;;19.43;100.00;98102.56;4995821;28;21038;-75
2022/06/05 01:13:42;;;;;;;11.83;4.53;;;18.50;99.90;;;19.38;100.00;98094.50;4996905;28;20467;-75
2022/06/05 01:16:25;;;;;;;4.90;4.07;;;18.50;99.90;;;19.38;100.00;98087.34;4996048;28;20827;-76
2022/06/05 01:19:09;;;;;;;5.23;4.03;;;18.40;99.90;;;19.35;100.00;98090.47;5000491;28;20502;-76
2022/06/05 01:22:35;;;;;;;5.80;4.13;;;18.40;99.90;;;19.34;100.00;98093.38;4997521;28;20485;-76
2022/06/05 01:25:31;;;;;;;5.00;4.17;;;18.40;99.90;;;19.32;100.00;98083.00;4995878;28;20465;-75
2022/06/05 01:28:11;;;;;;;7.20;5.90;;;18.40;99.90;;;19.32;100.00;98067.09;4993991;28;20475;-75
2022/06/05 01:30:51;;;;;;;5.90;4.20;;;18.40;99.90;;;19.30;100.00;98045.31;4999056;28;20491;-76
2022/06/05 01:33:25;;;;;;;4.93;4.40;;;18.40;99.90;;;19.30;100.00;98033.91;4998225;28;20518;-76
2022/06/05 01:36:10;;;;;;;8.80;4.43;;;18.30;99.90;;;19.30;100.00;98025.97;4997726;28;22482;-76
2022/06/05 01:38:50;;;;;;;4.63;4.13;;;18.40;99.90;;;19.27;100.00;98005.22;4999084;28;20536;-76
2022/06/05 01:41:29;;;;;;;5.47;4.90;;;18.40;99.90;;;19.27;100.00;97990.09;4994584;28;20486;-76
2022/06/05 01:44:05;;;;;;;6.10;5.27;;;18.40;99.90;;;19.24;100.00;97961.44;5002313;28;20576;-76
2022/06/05 01:46:38;;;;;;;6.40;5.10;;;18.30;99.90;;;19.27;100.00;97945.03;5004808;28;20494;-76
2022/06/05 01:49:19;;;;;;;5.80;5.17;;;18.40;99.90;;;19.29;100.00;97928.88;5002771;28;21069;-76
2022/06/05 01:51:59;;;;;;;8.17;5.43;;;18.40;99.90;;;19.29;100.00;97911.13;5004613;28;20495;-76
2022/06/05 01:54:36;;;;;;;9.50;5.97;;;18.50;99.90;;;19.28;100.00;97898.91;5003561;28;20462;-76
2022/06/05 01:57:12;;;;;;;7.87;5.53;;;18.50;99.90;;;19.28;100.00;97888.31;5002559;28;20536;-76
2022/06/05 01:59:48;;;;;;;6.13;5.53;;;18.50;99.90;;;19.28;100.00;97872.41;5005134;28;20873;-76
2022/06/05 02:02:26;;;;;;;6.13;5.40;;;18.50;99.90;;;19.27;100.00;97862.81;5002520;28;20466;-76
2022/06/05 02:05:06;;;;;;;7.27;6.10;;;18.60;99.90;;;19.25;100.00;97862.28;5003813;28;20463;-76
2022/06/05 02:07:43;;;;;;;8.93;6.57;;;18.50;99.90;;;19.25;100.00;97864.13;5003563;28;20949;-76
2022/06/05 02:10:24;;;;;;;7.90;5.70;;;18.50;99.90;;;19.25;100.00;97856.19;5005996;28;20467;-76
2022/06/05 02:12:57;;;;;;;10.37;5.33;;;18.50;99.90;;;19.26;100.00;97840.03;5003066;28;20470;-76
2022/06/05 02:15:30;;;;;;;7.73;6.50;;;18.50;99.90;;;19.27;100.00;97836.31;5007710;28;20448;-76
2022/06/05 02:18:02;;;;;;;8.57;5.70;;;18.50;99.90;;;19.31;100.00;97834.78;5004906;28;20455;-76
2022/06/05 02:20:31;;;;;;;6.10;5.50;;;18.50;99.90;;;19.33;100.00;97837.97;5004262;28;20456;-76
2022/06/05 02:23:03;;;;;;;6.10;5.50;;;18.50;99.90;;;19.30;100.00;97859.69;5007715;28;20466;-76
2022/06/05 02:25:34;;;;;;;5.33;4.83;;;18.60;99.90;;;19.27;100.00;97881.38;5009474;28;20450;-76
2022/06/05 02:28:08;;;;;;;12.97;5.80;;;18.50;99.90;;;19.22;100.00;97905.19;5004838;28;20915;-76
2022/06/05 02:30:46;;;;;;;7.73;5.37;;;18.50;99.90;;;19.26;100.00;97916.13;5005412;28;20479;-76
2022/06/05 02:33:31;;;;;;;7.30;5.70;;;18.50;99.90;;;19.29;100.00;97911.13;5006358;28;21032;-76
2022/06/05 02:36:11;;;;;;;6.63;5.63;;;18.50;99.90;;;19.32;100.00;97910.63;5004626;28;20450;-76
2022/06/05 02:39:00;;;;;;;9.43;5.70;;;18.50;99.90;;;19.30;100.00;97902.09;5002351;28;20485;-75
2022/06/05 02:41:38;;;;;;;6.07;5.23;;;18.60;99.90;;;19.29;100.00;97900.53;5001763;28;20478;-76
2022/06/05 02:44:32;;;;;;;6.27;5.67;;;18.50;99.90;;;19.29;100.00;97910.31;5003759;28;20446;-76
2022/06/05 02:47:21;;;;;;;9.47;5.83;;;18.40;99.90;;;19.31;100.00;97924.13;5002538;28;20465;-76
2022/06/05 02:50:02;;;;;;;8.13;5.30;;;18.40;99.90;;;19.31;100.00;97916.16;5005369;28;20529;-76
2022/06/05 02:52:35;;;;;;;6.10;5.40;;;18.40;99.90;;;19.30;100.00;97917.25;5004676;28;20461;-76
2022/06/05 02:55:10;;;;;;;6.27;5.10;;;18.40;99.90;;;19.29;100.00;97935.00;4998363;28;20529;-76
2022/06/05 02:57:43;;;;;;;8.23;5.00;;;18.40;99.90;;;19.27;100.00;97936.25;5002248;28;20463;-76
2022/06/05 03:00:20;;;;;;;7.23;5.83;;;18.40;99.90;;;19.28;100.00;97929.94;5003635;28;20482;-77
2022/06/05 03:05:39;;;;;;;5.50;4.73;;;18.40;99.90;;;19.27;100.00;97952.19;5001480;28;20463;-76
2022/06/05 03:08:14;;;;;;;8.90;4.93;;;18.40;99.90;;;19.27;100.00;97944.22;4999002;28;20466;-76
2022/06/05 03:10:44;;;;;;;6.33;5.10;;;18.30;99.90;;;19.23;100.00;97949.22;4999939;28;20474;-76
2022/06/05 03:13:15;;;;;;;8.67;5.23;;;18.30;99.90;;;19.21;100.00;97953.97;5000954;28;20466;-76
2022/06/05 03:15:47;;;;;;;5.67;5.07;;;18.30;99.90;;;19.19;100.00;97950.78;5001329;28;20897;-76
2022/06/05 03:18:18;;;;;;;7.07;5.07;;;18.30;99.90;;;19.17;100.00;97944.09;4998209;28;20456;-77
2022/06/05 03:20:47;;;;;;;5.40;4.90;;;18.40;99.90;;;19.17;100.00;97955.50;4996770;28;20503;-76
2022/06/05 03:23:18;;;;;;;10.67;5.80;;;18.30;99.90;;;19.16;100.00;97969.78;4997752;28;20463;-76
2022/06/05 03:25:48;;;;;;;6.40;5.30;;;18.30;99.90;;;19.19;100.00;97968.53;5000120;28;20483;-76
2022/06/05 03:28:18;;;;;;;6.50;5.60;;;18.30;99.90;;;19.18;100.00;97973.03;4999008;28;20535;-76
2022/06/05 03:30:49;;;;;;;6.23;5.63;;;18.40;99.90;;;19.21;100.00;97982.31;4996093;28;20492;-75
2022/06/05 03:33:19;;;;;;;10.60;5.30;;;18.30;99.90;;;19.22;100.00;97986.59;5000316;28;20538;-76
2022/06/05 03:35:48;;;;;;;6.20;5.13;;;18.30;99.90;;;19.21;100.00;97988.44;4999928;28;20459;-76
2022/06/05 03:38:19;;;;;;;9.80;6.17;;;18.30;99.90;;;19.23;100.00;98001.47;5001392;28;20478;-76
2022/06/05 03:40:48;;;;;;;7.93;5.97;;;18.30;99.90;;;19.21;100.00;98022.09;5000262;28;20500;-76
2022/06/05 03:43:19;;;;;;;34.43;23.27;;;18.30;99.90;;;19.22;100.00;98019.22;4997171;28;20468;-82
2022/06/05 03:46:00;;;;;;;28.83;17.47;;;18.30;99.90;;;19.20;100.00;98031.91;4996357;28;20606;-76
2022/06/05 03:48:30;;;;;;;8.67;6.90;;;18.30;99.90;;;19.18;100.00;98031.34;4998481;28;20467;-76
2022/06/05 03:51:07;;;;;;;10.07;5.50;;;18.30;99.90;;;19.18;100.00;98063.16;4997739;28;20459;-76
2022/06/05 03:53:38;;;;;;;8.00;5.80;;;18.30;99.90;;;19.19;100.00;98072.75;4997101;28;20467;-76
2022/06/05 03:56:17;;;;;;;59.30;36.97;;;18.30;99.90;;;19.21;100.00;98077.78;5000349;28;20459;-85
2022/06/05 03:58:48;;;;;;;9.83;7.70;;;18.30;99.90;;;19.23;100.00;98078.34;4998377;28;20464;-77
2022/06/05 04:01:21;;;;;;;11.30;6.50;;;18.30;99.90;;;19.25;100.00;98078.91;4996862;28;20528;-76
2022/06/05 04:03:52;;;;;;;6.47;5.83;;;18.30;99.90;;;19.25;100.00;98074.41;4999790;28;20459;-76
2022/06/05 04:06:28;;;;;;;7.53;6.83;;;18.30;99.90;;;19.27;100.00;98074.97;4999071;28;21061;-76
2022/06/05 04:08:58;;;;;;;6.00;5.40;;;18.30;99.90;;;19.27;100.00;98076.81;4997301;28;20865;-75
2022/06/05 04:11:31;;;;;;;6.70;5.77;;;18.40;99.90;;;19.27;100.00;98074.97;4995990;28;20487;-76
2022/06/05 04:14:01;;;;;;;7.80;6.30;;;18.40;99.90;;;19.28;100.00;98078.44;4996000;28;20545;-76
2022/06/05 04:16:36;;;;;;;7.20;5.53;;;18.40;99.90;;;19.30;100.00;98081.66;4999167;28;20478;-76
2022/06/05 04:19:06;;;;;;;13.30;6.80;;;18.40;99.90;;;19.25;100.00;98077.06;4998653;28;20474;-76
2022/06/05 04:21:43;;;;;;;8.83;6.20;;;18.50;99.90;;;19.24;100.00;98077.28;4999009;28;20888;-76
2022/06/05 04:24:13;;;;;;;8.60;6.87;;;18.50;99.90;;;19.23;100.00;98075.72;4998397;28;20532;-76
2022/06/05 04:26:45;;;;;;;17.73;7.37;;;18.50;99.90;;;19.23;100.00;98078.34;4997812;28;20483;-75
2022/06/05 04:29:16;;;;;;;7.57;6.43;;;18.40;99.90;;;19.23;100.00;98071.19;4996637;28;20815;-76
2022/06/05 04:31:49;;;;;;;9.73;7.40;;;18.40;99.90;;;19.24;100.00;98077.28;4996162;28;20483;-76
2022/06/05 04:34:23;;;;;;;13.43;8.57;;;18.40;99.90;;;19.23;100.00;98071.19;4997335;28;20459;-77
2022/06/05 04:36:55;;;;;;;8.53;7.23;;;18.40;99.90;;;19.20;100.00;98063.72;4997100;28;20550;-76
2022/06/05 04:39:25;;;;;;;7.83;7.03;;;18.40;99.90;;;19.15;100.00;98061.00;5000776;28;20456;-76
2022/06/05 04:41:55;;;;;;;8.83;7.90;;;18.40;99.90;;;19.14;100.00;98067.34;5001107;28;20925;-76
2022/06/05 04:44:24;;;;;;;9.00;7.60;;;18.40;99.90;;;19.13;100.00;98060.41;4999051;28;20463;-76
2022/06/05 04:46:56;;;;;;;15.80;8.17;;;18.30;99.90;;;19.10;100.00;98051.13;4984397;28;20459;-76
2022/06/05 04:49:26;;;;;;;11.10;7.33;;;18.30;99.90;;;19.07;100.00;98045.50;5003190;28;20436;-76
2022/06/05 04:51:56;;;;;;;14.17;7.80;;;18.30;99.90;;;19.06;100.00;98043.88;4998221;28;20496;-76
2022/06/05 04:54:27;;;;;;;11.03;9.03;;;18.30;99.90;;;19.05;100.00;98027.16;4996770;28;20468;-76
2022/06/05 04:57:06;;;;;;;14.93;9.10;;;18.20;99.90;;;19.06;100.00;98027.97;4994445;28;20478;-76
2022/06/05 04:59:37;;;;;;;23.70;9.73;;;18.20;99.90;;;19.01;100.00;98026.06;4998705;28;21071;-76
2022/06/05 05:02:09;;;;;;;21.40;9.70;;;18.20;99.90;;;19.00;100.00;98005.88;4998338;28;21021;-76
2022/06/05 05:04:40;;;;;;;20.77;12.60;;;18.20;99.90;;;18.98;100.00;97999.22;5000216;28;20495;-78
2022/06/05 05:07:10;;;;;;;11.00;9.20;;;18.20;99.90;;;18.95;100.00;97994.41;4999431;28;20485;-76
2022/06/05 05:09:46;;;;;;;18.23;9.20;;;18.20;99.90;;;18.93;100.00;97991.19;4997533;28;20459;-76
2022/06/05 05:12:16;;;;;;;18.13;9.70;;;18.20;99.90;;;18.96;100.00;97990.69;4998975;28;20460;-76
2022/06/05 05:14:46;;;;;;;11.50;9.17;;;18.10;99.90;;;18.94;100.00;97987.50;4999199;28;20470;-75
2022/06/05 05:17:17;;;;;;;14.67;9.50;;;18.10;99.90;;;18.94;100.00;97988.31;5000161;28;20836;-76
2022/06/05 05:19:46;;;;;;;14.60;9.60;;;18.10;99.90;;;18.93;100.00;97975.28;4999864;28;20826;-76
2022/06/05 05:22:16;;;;;;;13.10;9.23;;;18.10;99.90;;;18.95;100.00;97975.88;4996570;28;20468;-76
2022/06/05 05:24:47;;;;;;;10.93;9.03;;;18.10;99.90;;;18.96;100.00;97965.00;4996639;28;20459;-85
2022/06/05 05:27:17;;;;;;;13.00;8.77;;;18.10;99.90;;;18.98;100.00;97943.56;4995227;28;20507;-76
2022/06/05 05:29:47;;;;;;;17.00;9.73;;;18.10;99.90;;;18.96;100.00;97932.38;4998416;28;20471;-75
2022/06/05 05:32:19;;;;;;;11.17;9.43;;;18.10;99.90;;;18.97;100.00;97918.91;4996566;28;20984;-76
2022/06/05 05:34:51;;;;;;;12.10;9.63;;;18.10;99.90;;;18.98;100.00;97893.22;4998314;28;20461;-76
2022/06/05 05:37:22;;;;;;;11.20;9.27;;;18.10;99.90;;;18.99;100.00;97885.00;4998591;28;20464;-76
2022/06/05 05:42:40;;;;;;;13.93;9.27;;;18.10;99.90;;;18.98;100.00;97869.34;4997834;28;20464;-76
2022/06/05 05:45:12;;;;;;;14.07;9.00;;;18.10;99.90;;;18.99;100.00;97863.00;4996527;28;20520;-75
2022/06/05 05:47:42;;;;;;;16.87;9.73;;;18.20;99.90;;;19.02;100.00;97859.88;4996943;28;20455;-75
2022/06/05 05:50:16;;;;;;;10.47;8.30;;;18.20;99.90;;;19.02;100.00;97831.50;4997732;28;20463;-75
2022/06/05 05:52:46;;;;;;;10.03;8.80;;;18.20;99.90;;;19.05;100.00;97830.22;4994485;28;20459;-75
2022/06/05 05:55:20;;;;;;;15.87;10.20;;;18.20;99.90;;;19.09;100.00;97848.03;4996258;28;20475;-75
2022/06/05 05:57:50;;;;;;;11.53;9.93;;;18.20;99.90;;;19.09;100.00;97852.50;4993543;28;20962;-76
2022/06/05 06:00:22;;;;;;;14.10;12.40;;;18.10;99.90;;;19.13;100.00;97858.13;4995331;28;21015;-82
2022/06/05 06:02:52;;;;;;;10.80;9.57;;;18.20;99.90;;;19.15;100.00;97867.47;4996359;28;20476;-75
2022/06/05 06:05:22;;;;;;;12.20;9.60;;;18.30;99.90;;;19.16;100.00;97862.97;4995947;28;20985;-76
2022/06/05 06:07:53;;;;;;;11.80;9.20;;;18.40;99.90;;;19.16;100.00;97863.75;4998714;28;20865;-75
2022/06/05 06:10:24;;;;;;;10.40;9.30;;;18.40;99.90;;;19.18;100.00;97866.16;4996241;28;21101;-76
2022/06/05 06:12:55;;;;;;;11.00;9.27;;;18.40;99.90;;;19.22;100.00;97852.19;4992516;28;20525;-77
2022/06/05 06:15:25;;;;;;;10.53;8.63;;;18.50;99.90;;;19.25;100.00;97858.81;4996762;28;20468;-77
2022/06/05 06:17:56;;;;;;;11.83;8.93;;;18.50;99.90;;;19.26;100.00;97853.28;4996371;28;20467;-76
2022/06/05 06:20:26;;;;;;;12.00;10.80;;;18.60;99.90;;;19.25;100.00;97853.53;4996651;28;20489;-76
2022/06/05 06:22:56;;;;;;;10.83;9.70;;;18.50;99.90;;;19.22;100.00;97857.47;4997850;28;20465;-75
2022/06/05 06:25:25;;;;;;;13.30;8.83;;;18.50;99.90;;;19.25;100.00;97867.59;4998922;28;25978;-76
2022/06/05 06:27:57;;;;;;;10.60;9.50;;;18.50;99.90;;;19.27;100.00;97870.78;4995242;28;20486;-76
2022/06/05 06:30:27;;;;;;;11.53;9.70;;;18.50;99.90;;;19.30;100.00;97861.56;4996588;28;20493;-76
2022/06/05 06:33:00;;;;;;;12.10;9.80;;;18.50;99.90;;;19.34;100.00;97870.59;4997331;28;20495;-76
2022/06/05 06:35:30;;;;;;;14.07;10.53;;;18.40;99.90;;;19.37;100.00;97881.50;4999199;28;20467;-76
2022/06/05 06:38:01;;;;;;;13.00;11.27;;;18.50;99.90;;;19.36;100.00;97877.28;4999808;28;20467;-75
2022/06/05 06:40:35;;;;;;;18.00;10.87;;;18.60;99.90;;;19.36;100.00;97871.97;5000442;28;20549;-75
2022/06/05 06:43:07;;;;;;;11.47;10.20;;;18.70;99.90;;;19.40;100.00;97874.94;5000618;28;20459;-75
2022/06/05 06:45:37;;;;;;;15.80;11.90;;;18.60;99.90;;;19.44;100.00;97884.81;4999062;28;20459;-83
2022/06/05 06:48:13;;;;;;;67.47;40.37;;;18.70;99.90;;;19.49;100.00;97889.38;5000197;28;20534;-75
2022/06/05 06:50:43;;;;;;;13.80;11.63;;;18.60;99.90;;;19.51;100.00;97896.03;5002481;28;20505;-75
2022/06/05 06:53:14;;;;;;;10.70;9.60;;;18.60;99.90;;;19.53;100.00;97907.22;5003614;28;20467;-75
2022/06/05 06:55:44;;;;;;;11.90;10.67;;;18.60;99.90;;;19.54;100.00;97914.09;5003972;28;20494;-75
2022/06/05 06:58:13;;;;;;;11.33;10.20;;;18.70;99.90;;;19.52;100.00;97918.88;5002501;28;20451;-75
2022/06/05 07:00:43;;;;;;;10.93;9.83;;;18.70;99.90;;;19.52;100.00;97923.38;5000812;28;20991;-75
2022/06/05 07:03:14;;;;;;;15.40;10.10;;;18.70;99.90;;;19.50;100.00;97928.94;5001367;28;20491;-75
2022/06/05 07:05:46;;;;;;;12.23;10.23;;;18.80;99.90;;;19.47;100.00;97928.63;5000401;28;20723;-76
2022/06/05 07:08:23;;;;;;;11.23;10.10;;;18.80;99.90;;;19.47;100.00;97928.63;5001720;28;20464;-75
2022/06/05 07:10:54;;;;;;;12.53;11.23;;;18.80;99.90;;;19.47;100.00;97929.41;5002162;28;20490;-76
2022/06/05 07:13:24;;;;;;;11.53;10.33;;;18.70;99.90;;;19.47;100.00;97924.09;5002599;28;20523;-76
2022/06/05 07:15:54;;;;;;;11.80;10.57;;;18.70;99.90;;;19.49;100.00;97932.63;5002319;28;20886;-76
2022/06/05 07:18:25;;;;;;;11.80;10.07;;;18.70;99.90;;;19.47;100.00;97929.41;5002956;28;20481;-75
2022/06/05 07:20:56;;;;;;;19.50;10.77;;;18.70;99.90;;;19.45;100.00;97920.91;5002273;28;20529;-75
2022/06/05 07:23:25;;;;;;;12.63;11.27;;;18.70;99.90;;;19.45;100.00;97920.91;5003211;28;20874;-76
2022/06/05 07:25:55;;;;;;;11.43;9.77;;;18.70;99.90;;;19.46;100.00;97919.88;5001262;28;20935;-75
2022/06/05 07:28:25;;;;;;;12.90;11.57;;;18.70;99.90;;;19.47;100.00;97912.72;5003119;28;21012;-75
2022/06/05 07:31:00;;;;;;;14.07;11.00;;;18.70;99.90;;;19.47;100.00;97908.19;5004501;28;21057;-76
2022/06/05 07:33:31;;;;;;;12.70;11.23;;;18.60;99.90;;;19.49;100.00;97907.94;5002344;28;20438;-76
2022/06/05 07:36:03;;;;;;;14.87;10.63;;;18.70;99.90;;;19.46;100.00;97900.50;5002611;28;20508;-75
2022/06/05 07:38:34;;;;;;;13.27;10.70;;;18.70;99.90;;;19.46;100.00;97906.59;4999041;28;20467;-75
2022/06/05 07:41:06;;;;;;;13.80;11.67;;;18.70;99.90;;;19.45;100.00;97906.84;4999180;28;20537;-75
2022/06/05 07:43:35;;;;;;;12.87;11.17;;;18.80;99.90;;;19.43;100.00;97895.69;5000532;28;20451;-75
2022/06/05 07:46:06;;;;;;;13.93;11.93;;;18.70;99.90;;;19.44;100.00;97898.06;4999732;28;20498;-75
2022/06/05 07:48:37;;;;;;;14.80;9.93;;;18.80;99.90;;;19.45;100.00;97905.00;5002500;28;20463;-75
2022/06/05 07:56:47;;;;;;;14.57;12.93;;;18.70;99.90;;;19.49;100.00;97900.78;5001303;28;20512;-76
2022/06/05 07:59:17;;;;;;;13.40;11.40;;;18.70;99.90;;;19.49;100.00;97906.09;5001775;28;20472;-75
2022/06/05 08:01:57;;;;;;;13.03;11.23;;;18.70;99.90;;;19.48;100.00;97899.19;5000311;28;21043;-75
2022/06/05 08:04:29;;;;;;;13.80;11.37;;;18.80;99.90;;;19.51;100.00;97897.88;4999928;28;20462;-76
2022/06/05 08:07:02;;;;;;;14.50;13.00;;;18.70;99.90;;;19.51;100.00;97905.84;5003165;28;20884;-75
2022/06/05 08:09:33;;;;;;;14.60;12.20;;;18.70;99.90;;;19.49;100.00;97900.78;4999790;28;21052;-75
2022/06/05 08:12:04;;;;;;;30.47;20.60;;;18.70;99.90;;;19.52;100.00;97904.78;5000484;28;20451;-76
2022/06/05 08:14:35;;;;;;;14.40;12.27;;;18.70;99.90;;;19.55;100.00;97897.16;4999741;28;20463;-75
2022/06/05 08:17:12;;;;;;;15.00;12.03;;;18.70;99.90;;;19.58;100.00;97915.22;5002659;28;20443;-75
2022/06/05 08:19:44;;;;;;;15.13;12.50;;;18.70;99.90;;;19.59;100.00;97908.88;4999191;28;20471;-76
2022/06/05 08:22:17;;;;;;;20.80;13.80;;;18.70;99.90;;;19.61;100.00;97913.13;4999835;28;20505;-75
2022/06/05 08:24:46;;;;;;;17.13;13.90;;;18.80;99.90;;;19.59;100.00;97900.91;5001311;28;20451;-75
2022/06/05 08:27:20;;;;;;;19.50;13.63;;;18.80;99.90;;;19.58;100.00;97899.31;5002322;28;20478;-75
2022/06/05 08:29:50;;;;;;;16.63;13.87;;;18.80;99.90;;;19.57;100.00;97903.03;4999549;28;20463;-76
2022/06/05 08:32:20;;;;;;;18.10;14.30;;;18.70;99.90;;;19.57;100.00;97892.41;4996679;28;20478;-75
2022/06/05 08:34:51;;;;;;;13.83;12.07;;;18.70;99.90;;;19.59;100.00;97889.50;5003091;28;20451;-75
2022/06/05 08:43:36;;;;;;;16.73;13.00;;;18.60;99.90;;;19.58;100.00;97899.31;5003367;28;20491;-75
2022/06/05 08:46:16;;;;;;;13.57;11.73;;;18.70;99.90;;;19.56;100.00;97890.81;5000983;28;20551;-76
2022/06/05 08:48:54;;;;;;;13.27;11.90;;;18.70;99.90;;;19.49;100.00;97897.34;4997843;28;20475;-76
2022/06/05 08:51:47;;;;;;;12.97;11.57;;;18.80;99.90;;;19.46;100.00;97911.09;4997579;28;20994;-76
2022/06/05 08:54:22;;;;;;;19.13;12.37;;;18.80;99.90;;;19.44;100.00;97905.22;4998777;28;20514;-76
2022/06/05 08:56:59;;;;;;;24.40;10.63;;;18.70;99.90;;;19.43;100.00;97911.59;4998791;28;20449;-76
2022/06/05 08:59:39;;;;;;;11.53;10.03;;;18.70;99.90;;;19.43;100.00;97911.59;4997855;28;20507;-75
2022/06/05 09:02:23;;;;;;;21.00;11.87;;;18.60;99.90;;;19.41;100.00;97919.78;4999718;28;20497;-76
2022/06/05 09:05:02;;;;;;;13.63;9.67;;;18.60;99.90;;;19.41;100.00;97921.63;4999335;28;21722;-76
2022/06/05 09:07:45;;;;;;;22.27;9.23;;;18.60;99.90;;;19.40;100.00;97909.41;4999226;28;20483;-76
2022/06/05 09:10:22;;;;;;;17.30;10.97;;;18.60;99.90;;;19.39;100.00;97899.84;4999297;28;21192;-76
2022/06/05 09:12:59;;;;;;;17.73;10.80;;;18.60;99.90;;;19.43;100.00;97898.34;4997220;28;21082;-76
2022/06/05 09:15:36;;;;;;;14.37;10.07;;;18.60;99.90;;;19.45;100.00;97899.69;4999441;28;20525;-76
2022/06/05 09:18:18;;;;;;;10.70;9.60;;;18.60;99.90;;;19.47;100.00;97902.88;5000220;28;20853;-76
2022/06/05 09:20:53;;;;;;;27.83;9.17;;;18.60;99.90;;;19.52;100.00;97910.91;4999040;28;20466;-76
2022/06/05 09:23:34;;;;;;;12.17;8.80;;;18.60;99.90;;;19.50;100.00;97901.59;4998710;28;20518;-76
2022/06/05 09:26:13;;;;;;;12.20;9.30;;;18.70;99.90;;;19.52;100.00;97902.94;4998837;28;20457;-76
2022/06/05 09:29:09;;;;;;;16.13;8.70;;;18.60;99.90;;;19.53;100.00;97895.78;4998865;28;20525;-76
2022/06/05 09:32:07;;;;;;;11.17;9.97;;;18.60;99.90;;;19.53;100.00;97890.50;4997806;28;20583;-76
2022/06/05 09:34:45;;;;;;;14.20;9.40;;;18.70;99.90;;;19.49;100.00;97894.69;4998466;28;20463;-76
2022/06/05 09:37:23;;;;;;;11.20;9.63;;;18.70;99.90;;;19.47;100.00;97881.66;4999175;28;20883;-76
2022/06/05 09:40:01;;;;;;;9.50;8.50;;;18.70;99.90;;;19.45;100.00;97883.75;5001499;28;20446;-76
2022/06/05 09:42:48;;;;;;;11.23;9.17;;;18.70;99.90;;;19.45;100.00;97882.97;4996690;28;20543;-76
2022/06/05 09:45:34;;;;;;;10.87;9.77;;;18.60;99.90;;;19.43;100.00;97883.22;4998615;28;20454;-76
2022/06/05 09:48:21;;;;;;;11.47;10.13;;;18.70;99.90;;;19.46;100.00;97881.91;4998012;28;20550;-75
2022/06/05 09:50:52;;;;;;;14.00;9.60;;;18.70;99.90;;;19.48;100.00;97864.69;4998821;28;20474;-76
2022/06/05 09:53:30;;;;;;;11.70;10.43;;;18.70;99.90;;;19.53;100.00;97872.72;4996615;28;20443;-76
2022/06/05 09:56:20;;;;;;;10.40;8.40;;;18.70;99.90;;;19.58;100.00;97870.13;4997598;28;21019;-76
2022/06/05 09:59:15;;;;;;;93.30;66.40;;;18.70;99.90;;;19.57;100.00;97865.88;4993966;28;20463;-82
2022/06/05 10:01:56;;;;;;;17.80;12.60;;;18.70;99.90;;;19.66;100.00;97870.72;4996259;28;21246;-76
2022/06/05 10:04:33;;;;;;;8.30;7.50;;;18.90;99.90;;;19.71;100.00;97865.50;4999657;28;20518;-81
2022/06/05 10:07:30;;;;;;;26.30;17.80;;;18.90;99.90;;;19.74;100.00;97864.97;4998797;28;20569;-76
2022/06/05 10:10:06;;;;;;;9.67;8.63;;;18.90;99.90;;;19.76;100.00;97861.03;4998971;28;20511;-76
2022/06/05 10:12:47;;;;;;;8.20;7.30;;;19.00;99.90;;;19.75;100.00;97861.28;4999591;28;20542;-75
2022/06/05 10:15:27;;;;;;;7.83;6.80;;;19.10;99.90;;;19.75;100.00;97862.06;4998502;28;20455;-75
2022/06/05 10:18:02;;;;;;;9.40;7.73;;;19.10;99.90;;;19.77;100.00;97869.78;4998632;28;20974;-76
2022/06/05 10:21:01;;;;;;;10.00;7.13;;;19.10;99.90;;;19.78;100.00;97874.06;4998629;28;20462;-75
2022/06/05 10:23:49;;;;;;;7.73;6.97;;;19.10;99.90;;;19.78;100.00;97855.47;4998960;28;21009;-75
2022/06/05 10:26:37;;;;;;;9.50;8.20;;;19.10;99.90;;;19.85;100.00;97853.44;4999107;28;20464;-76
2022/06/05 10:29:28;;;;;;;9.93;7.40;;;19.10;99.90;;;19.93;100.00;97852.94;5000249;28;21393;-76
2022/06/05 10:32:06;;;;;;;8.13;7.33;;;19.10;99.90;;;20.02;100.00;97844.31;4998773;28;20475;-75
2022/06/05 10:34:48;;;;;;;9.87;8.13;;;19.30;99.90;;;20.08;100.00;97840.63;4995532;28;20496;-75
2022/06/05 10:37:26;;;;;;;7.63;6.93;;;19.30;99.90;;;20.12;100.00;97840.94;5000247;28;20466;-75
2022/06/05 10:40:13;;;;;;;7.73;6.93;;;19.50;99.90;;;20.20;100.00;97834.34;5000455;28;20458;-76
2022/06/05 10:42:55;;;;;;;7.40;6.37;;;19.50;99.90;;;20.29;100.00;97838.16;4996897;28;20463;-76
2022/06/05 10:45:41;;;;;;;7.70;6.20;;;19.70;99.90;;;20.39;100.00;97832.94;4998143;28;20576;-76
2022/06/05 10:48:48;;;;;;;6.17;5.67;;;19.80;99.90;;;20.48;100.00;97829.53;4998005;28;20464;-76
2022/06/05 10:51:33;;;;;;;6.13;5.53;;;19.90;99.90;;;20.53;100.00;97826.13;4997571;28;20463;-76
2022/06/05 10:54:24;;;;;;;4.83;4.43;;;20.00;99.90;;;20.56;100.00;97826.41;4999055;28;20470;-76
2022/06/05 10:57:04;;;;;;;3.87;3.30;;;20.10;99.90;;;20.58;100.00;97818.97;4997412;28;20976;-76
2022/06/05 10:59:59;;;;;;;5.43;4.43;;;20.10;99.90;;;20.68;100.00;97807.63;4997159;28;20477;-76
2022/06/05 11:02:57;;;;;;;3.63;3.33;;;20.00;99.90;;;20.83;100.00;97809.53;4997516;28;20558;-76